Terminal Aerodrome Forecast
Issued by NWS Bismarck, ND

Home | Current Version | Previous Version | Graphics & Text | Print | Product List | Glossary On
Versions: 1 2 3 4 5 6 7 8 9 10 11 12 13 14 15 16 17 18 19 20 21 22 23 24 25
803
FTUS43 KBIS 112335
TAFISN
TAF
KISN 112335Z 1200/1224 34007KT P6SM SCT090
     FM120300 36006KT P6SM OVC020
     FM120600 01006KT 5SM -SN BR OVC015
     FM120900 01008KT P6SM VCSH OVC025
     FM121200 03008KT P6SM BKN050
     FM121700 07006KT P6SM SCT250=

USA.gov is the U.S. government's official web portal to all federal, state and local government web resources and services.